Current | Forecast
Updated: 10:30 AM JST on April 23, 2018
Observed at Nagoya / Chubu, Japan
Temperature 72°F
Humidity 64%
Dew Point 59°F
Wind ESE at 14 mph
Pressure 30.06 in (Steady)
Conditions Partly Cloudy
Visibility 6.2 miles
UV 10 out of 16
Clouds (FEW) : 3000 ft
Yesterday's Maximum 77°F
Yesterday's Minimum 55°F approx.
Yesterday's Cooling Degree Days 1 approx.
Sunrise5:09 AM JST
Sunset6:27 PM JST
Moon Rise11:23 AM JST
Moon Set12:46 AM JST
Moon PhaseMoon Phase
First Quarter
Raw METARMETAR RJGG 230130Z 12012KT 9999 FEW030 BKN/// 22/15 Q1018 NOSIG


Monday
. High: 75° F.
Tuesday
. High: 73° F.
Wednesday
. High: 73° F.
Thursday
. High: 73° F.
Friday
. High: 75° F.
Saturday
. High: 78° F.
Sunday
. High: 78° F.
Monday
. High: 80° F.

Units: English | Metric

Find the Weather for any City, State or Zipcode, or Country:

U.S. State List | Severe Weather | Tropical Storms | Ski Conditions
United States | Canada | Central America | South America | Asia | Europe | Australia | Africa | Islands

Weather Underground

© Copyright 2018
The Weather Company, LLC